createdAt,value
2019-04-27T00:00:53.483Z,19.25
2019-04-27T00:02:26.342Z,16.50
2019-04-27T00:03:41.157Z,19.00
2019-04-27T00:04:56.159Z,16.50
2019-04-27T00:06:10.210Z,16.25
2019-04-27T00:07:24.042Z,21.00
2019-04-27T00:08:39.941Z,17.00
2019-04-27T00:09:50.260Z,14.25
2019-04-27T00:11:05.158Z,15.00
2019-04-27T00:12:07.744Z,13.75
2019-04-27T00:13:12.957Z,12.00
2019-04-27T00:14:23.880Z,16.00
2019-04-27T00:15:39.992Z,15.25
2019-04-27T00:16:59.746Z,12.75
2019-04-27T00:18:16.025Z,14.75
2019-04-27T00:19:53.708Z,12.50
2019-04-27T00:21:03.594Z,15.50
2019-04-27T00:22:14.682Z,15.00
2019-04-27T00:23:21.431Z,13.00
2019-04-27T00:24:24.237Z,14.25
2019-04-27T00:25:27.201Z,15.00
2019-04-27T00:26:30.091Z,14.25
2019-04-27T00:27:33.594Z,15.50
2019-04-27T00:28:36.430Z,17.00
2019-04-27T00:29:39.752Z,11.50
2019-04-27T00:30:43.839Z,18.00
2019-04-27T00:31:46.794Z,15.00
2019-04-27T00:32:50.017Z,12.50
2019-04-27T00:33:53.598Z,14.75
2019-04-27T00:34:56.545Z,12.50
2019-04-27T00:36:07.495Z,13.50
2019-04-27T00:37:27.203Z,12.00
2019-04-27T00:38:43.611Z,14.00
2019-04-27T00:39:54.316Z,11.00
2019-04-27T00:41:07.278Z,15.25
2019-04-27T00:42:23.290Z,15.50
2019-04-27T00:43:26.042Z,10.00
2019-04-27T00:44:40.790Z,14.00
2019-04-27T00:45:43.776Z,12.00
2019-04-27T00:46:47.988Z,14.50
2019-04-27T00:47:59.096Z,12.00
2019-04-27T00:48:55.301Z,14.50
2019-04-27T00:49:58.120Z,15.50
2019-04-27T00:51:00.943Z,13.25
2019-04-27T00:52:03.958Z,12.50
2019-04-27T00:53:07.048Z,13.25
2019-04-27T00:54:09.918Z,17.00
2019-04-27T00:55:13.290Z,15.00
2019-04-27T00:59:56.819Z,17.75
2019-04-27T01:01:07.547Z,18.00
2019-04-27T01:02:37.777Z,20.75
2019-04-27T01:03:55.429Z,18.00
2019-04-27T01:04:58.349Z,21.75
2019-04-27T01:06:03.125Z,17.75
2019-04-27T01:07:06.430Z,15.00
2019-04-27T01:08:09.251Z,19.00
2019-04-27T01:09:13.657Z,16.50
2019-04-27T01:10:16.463Z,17.00
2019-04-27T01:11:19.350Z,17.75
2019-04-27T01:12:23.701Z,17.50
2019-04-27T01:13:29.235Z,17.25
2019-04-27T01:14:30.971Z,14.50
2019-04-27T01:15:34.113Z,20.00
2019-04-27T01:16:37.037Z,12.00
2019-04-27T01:17:39.837Z,17.00
2019-04-27T01:18:43.091Z,20.75
2019-04-27T01:19:45.830Z,19.00
2019-04-27T01:20:48.933Z,15.00
2019-04-27T01:21:51.788Z,16.75
2019-04-27T01:22:54.665Z,14.75
2019-04-27T01:23:58.869Z,14.00
2019-04-27T01:25:05.617Z,17.00
2019-04-27T01:26:36.224Z,14.50
2019-04-27T01:28:01.156Z,23.50
2019-04-27T01:29:06.954Z,18.00
2019-04-27T01:30:18.807Z,18.75
2019-04-27T01:31:22.110Z,14.00
2019-04-27T01:32:25.176Z,19.75
2019-04-27T01:33:28.306Z,18.00
2019-04-27T01:34:32.664Z,22.50
2019-04-27T01:35:35.821Z,17.75
2019-04-27T01:36:39.235Z,17.75
2019-04-27T01:37:42.058Z,18.50
2019-04-27T01:38:45.237Z,18.00
2019-04-27T01:39:48.588Z,17.75
2019-04-27T01:40:52.506Z,18.50
2019-04-27T01:41:55.320Z,15.50
2019-04-27T01:42:58.832Z,20.50
2019-04-27T01:44:01.854Z,18.00
2019-04-27T01:45:04.709Z,14.75
2019-04-27T01:46:08.806Z,17.50
2019-04-27T01:47:12.271Z,16.50
2019-04-27T01:48:22.924Z,16.25
2019-04-27T01:49:19.531Z,17.25
2019-04-27T01:50:22.601Z,16.25
2019-04-27T01:51:25.359Z,16.75
2019-04-27T01:52:29.155Z,16.75
2019-04-27T01:53:33.114Z,17.00
2019-04-27T01:54:36.326Z,17.75
2019-04-27T01:55:40.764Z,14.50
2019-04-27T01:56:44.056Z,16.50
2019-04-27T01:57:48.642Z,14.75
2019-04-27T01:58:51.307Z,15.50
2019-04-27T01:59:54.169Z,17.00
2019-04-27T02:01:15.701Z,12.00
2019-04-27T02:02:35.278Z,16.00
2019-04-27T02:03:48.876Z,13.50
2019-04-27T02:05:09.248Z,12.25
2019-04-27T02:06:12.720Z,15.50
2019-04-27T02:07:15.509Z,16.00
2019-04-27T02:08:19.593Z,14.00
2019-04-27T02:09:23.923Z,16.00
2019-04-27T02:10:29.296Z,13.50
2019-04-27T02:11:32.167Z,15.50
2019-04-27T02:12:35.400Z,12.00
2019-04-27T02:13:38.853Z,14.00
2019-04-27T02:14:41.669Z,21.25
2019-04-27T02:15:44.822Z,12.00
2019-04-27T02:16:49.281Z,12.00
2019-04-27T02:17:52.253Z,13.50
2019-04-27T02:18:55.379Z,13.00
2019-04-27T02:19:59.519Z,11.00
2019-04-27T02:21:02.387Z,12.00
2019-04-27T02:22:05.618Z,13.50
2019-04-27T02:23:09.162Z,16.25
2019-04-27T02:24:12.354Z,12.00
2019-04-27T02:25:15.217Z,10.00
2019-04-27T02:26:19.178Z,12.00
2019-04-27T02:27:25.203Z,13.00
2019-04-27T02:28:59.290Z,12.50
2019-04-27T02:30:33.007Z,11.25
2019-04-27T02:32:13.153Z,10.50
2019-04-27T02:33:33.057Z,11.50
2019-04-27T02:34:43.743Z,12.00
2019-04-27T02:35:46.585Z,12.75
2019-04-27T02:36:50.488Z,11.00
2019-04-27T02:38:00.233Z,14.00
2019-04-27T02:39:01.953Z,14.00
2019-04-27T02:40:04.725Z,12.00
2019-04-27T02:41:09.815Z,14.00
2019-04-27T02:42:12.493Z,11.00
2019-04-27T02:43:15.789Z,14.00
2019-04-27T02:44:25.882Z,14.50
2019-04-27T02:45:30.293Z,10.00
2019-04-27T02:46:33.606Z,15.50
2019-04-27T02:47:45.279Z,11.50
2019-04-27T02:48:59.374Z,15.50
2019-04-27T02:49:52.557Z,14.00
2019-04-27T02:51:01.812Z,12.00
2019-04-27T02:52:23.611Z,12.00
2019-04-27T02:53:45.114Z,10.25
2019-04-27T02:54:50.278Z,14.75
2019-04-27T02:55:52.387Z,13.25
2019-04-27T02:56:55.587Z,14.50
2019-04-27T02:57:59.867Z,12.00
2019-04-27T02:59:03.014Z,9.25
2019-04-27T03:00:05.931Z,18.50
2019-04-27T03:01:10.000Z,11.00
2019-04-27T03:02:29.983Z,11.50
2019-04-27T03:03:32.803Z,12.25
2019-04-27T03:04:35.624Z,10.50
2019-04-27T03:05:39.880Z,10.75
2019-04-27T03:06:43.375Z,14.00
2019-04-27T03:07:46.214Z,12.00
2019-04-27T03:08:52.872Z,12.00
2019-04-27T03:09:56.517Z,18.00
2019-04-27T03:11:01.201Z,11.25
2019-04-27T03:12:05.149Z,12.00
2019-04-27T03:13:26.725Z,12.00
2019-04-27T03:14:50.353Z,11.25
2019-04-27T03:16:11.391Z,12.50
2019-04-27T03:17:39.728Z,13.75
2019-04-27T03:19:13.237Z,16.75
2019-04-27T03:20:30.039Z,11.00
2019-04-27T03:21:51.239Z,9.00
2019-04-27T03:22:59.878Z,9.00
2019-04-27T03:24:01.642Z,11.50
2019-04-27T03:25:32.427Z,12.75
2019-04-27T03:26:50.096Z,13.25
2019-04-27T03:27:54.374Z,13.00
2019-04-27T03:28:57.154Z,12.00
2019-04-27T03:30:00.332Z,13.75
2019-04-27T03:31:03.282Z,19.50
2019-04-27T03:32:06.103Z,14.25
2019-04-27T03:33:11.895Z,14.00
2019-04-27T03:34:16.277Z,14.75
2019-04-27T03:35:22.199Z,20.00
2019-04-27T03:36:23.471Z,16.00
2019-04-27T03:37:26.714Z,17.00
2019-04-27T03:38:31.103Z,16.50
2019-04-27T03:39:34.261Z,12.75
2019-04-27T03:40:37.051Z,10.75
2019-04-27T03:41:41.207Z,18.50
2019-04-27T03:42:46.469Z,12.00
2019-04-27T03:43:50.339Z,9.50
2019-04-27T03:44:53.230Z,11.50
2019-04-27T03:45:56.299Z,10.50
2019-04-27T03:46:59.676Z,10.00
2019-04-27T03:48:02.593Z,11.25
2019-04-27T03:49:05.737Z,14.00
2019-04-27T03:50:10.284Z,18.00
2019-04-27T03:51:29.832Z,19.00
2019-04-27T03:52:39.820Z,14.00
2019-04-27T03:53:56.958Z,17.50
2019-04-27T03:55:10.329Z,13.25
2019-04-27T03:56:30.647Z,14.00
2019-04-27T03:57:40.207Z,15.50
2019-04-27T03:58:46.096Z,14.75
2019-04-27T04:00:03.162Z,11.25
2019-04-27T04:01:06.029Z,14.75
2019-04-27T04:02:10.202Z,14.00
2019-04-27T04:03:13.099Z,14.00
2019-04-27T04:04:19.516Z,14.75
2019-04-27T04:05:22.354Z,18.00
2019-04-27T04:06:29.508Z,11.50
2019-04-27T04:07:33.474Z,14.75
2019-04-27T04:08:41.076Z,16.00
2019-04-27T04:09:43.918Z,13.00
2019-04-27T04:10:51.601Z,14.25
2019-04-27T04:12:02.259Z,13.50
2019-04-27T04:13:15.135Z,14.00
2019-04-27T04:14:20.358Z,15.75
2019-04-27T04:15:33.980Z,12.75
2019-04-27T04:16:41.028Z,16.00
2019-04-27T04:17:44.239Z,16.00
2019-04-27T04:19:09.465Z,18.50
2019-04-27T04:20:11.380Z,16.00
2019-04-27T04:21:14.548Z,15.25
2019-04-27T04:22:19.703Z,13.75
2019-04-27T04:23:21.781Z,13.00
2019-04-27T04:24:28.365Z,14.00
2019-04-27T04:25:32.652Z,14.25
2019-04-27T04:26:33.620Z,15.25
2019-04-27T04:27:36.711Z,13.75
2019-04-27T04:28:39.670Z,14.00
2019-04-27T04:29:43.583Z,16.50
2019-04-27T04:30:46.439Z,14.25
2019-04-27T04:31:50.380Z,13.75
2019-04-27T04:32:53.509Z,13.00
2019-04-27T04:33:56.568Z,15.50
2019-04-27T04:35:01.287Z,14.00
2019-04-27T04:36:03.884Z,14.00
2019-04-27T04:37:09.153Z,13.25
2019-04-27T04:38:11.200Z,14.75
2019-04-27T04:39:14.440Z,17.00
2019-04-27T04:40:19.731Z,20.00
2019-04-27T04:41:31.461Z,21.50
2019-04-27T04:42:40.134Z,20.25
2019-04-27T04:43:51.680Z,18.50
2019-04-27T04:45:04.291Z,21.75
2019-04-27T04:46:24.568Z,18.00
2019-04-27T04:47:49.784Z,17.75
2019-04-27T04:48:53.196Z,26.75
2019-04-27T04:50:10.202Z,21.00
2019-04-27T04:51:00.512Z,17.50
2019-04-27T04:52:03.382Z,17.50
2019-04-27T04:53:06.503Z,15.00
2019-04-27T04:54:09.559Z,15.75
2019-04-27T04:55:12.495Z,18.00
2019-04-27T04:56:15.303Z,13.75
2019-04-27T04:57:19.550Z,24.00
2019-04-27T04:58:22.593Z,19.75
2019-04-27T04:59:25.658Z,16.00
2019-04-27T05:00:29.993Z,13.50
2019-04-27T05:01:33.046Z,11.00
2019-04-27T05:02:35.889Z,11.75
2019-04-27T05:03:38.943Z,17.75
2019-04-27T05:04:41.759Z,19.50
2019-04-27T05:05:45.289Z,20.75
2019-04-27T05:06:50.500Z,23.75
2019-04-27T05:07:52.572Z,18.75
2019-04-27T05:08:59.487Z,18.50
2019-04-27T05:10:02.433Z,15.00
2019-04-27T05:11:05.220Z,17.75
2019-04-27T05:12:08.883Z,19.75
2019-04-27T05:13:11.799Z,14.00
2019-04-27T05:14:14.611Z,12.50
2019-04-27T05:15:19.076Z,14.50
2019-04-27T05:16:24.579Z,16.50
2019-04-27T05:17:29.537Z,14.00
2019-04-27T05:18:32.847Z,12.00
2019-04-27T05:19:36.141Z,25.00
2019-04-27T05:20:58.608Z,14.50
2019-04-27T05:22:03.738Z,20.00
2019-04-27T05:23:06.882Z,18.50
2019-04-27T05:24:10.111Z,22.00
2019-04-27T05:25:13.269Z,31.50
2019-04-27T05:26:19.394Z,25.25
2019-04-27T05:27:24.440Z,24.75
2019-04-27T05:28:27.311Z,21.25
2019-04-27T05:29:30.181Z,25.75
2019-04-27T05:44:25.382Z,19.00
2019-04-27T05:45:36.300Z,23.00
2019-04-27T05:46:56.402Z,21.00
2019-04-27T05:48:04.170Z,25.75
2019-04-27T05:49:09.534Z,24.50
2019-04-27T05:50:18.394Z,22.50
2019-04-27T05:51:21.777Z,22.00
2019-04-27T05:52:31.467Z,21.75
2019-04-27T05:53:34.322Z,24.50
2019-04-27T05:54:38.656Z,23.75
2019-04-27T05:55:41.777Z,27.25
2019-04-27T05:56:45.132Z,23.00
2019-04-27T05:57:49.036Z,22.00
2019-04-27T05:58:51.943Z,24.00
2019-04-27T05:59:56.114Z,23.25
2019-04-27T06:00:59.611Z,23.00
2019-04-27T06:02:04.972Z,19.75
2019-04-27T06:03:09.068Z,26.75
2019-04-27T06:04:12.797Z,23.50
2019-04-27T06:05:16.610Z,23.75
2019-04-27T06:06:19.863Z,28.00
2019-04-27T06:07:22.987Z,22.50
2019-04-27T06:08:26.102Z,22.50
2019-04-27T06:09:29.062Z,26.75
2019-04-27T06:10:31.981Z,24.25
2019-04-27T06:11:34.791Z,23.25
2019-04-27T06:12:39.541Z,29.00
2019-04-27T06:13:42.467Z,13.00
2019-04-27T06:14:45.630Z,14.75
2019-04-27T06:15:50.014Z,16.75
2019-04-27T06:16:52.930Z,17.50
2019-04-27T06:17:55.725Z,18.00
2019-04-27T06:18:59.486Z,20.25
2019-04-27T06:20:02.374Z,14.00
2019-04-27T06:21:05.555Z,14.75
2019-04-27T06:22:09.679Z,16.25
2019-04-27T06:23:12.529Z,13.75
2019-04-27T06:24:15.725Z,16.75
2019-04-27T06:25:21.473Z,13.00
2019-04-27T06:26:23.447Z,13.25
2019-04-27T06:27:26.586Z,11.00
2019-04-27T06:28:31.518Z,13.00
2019-04-27T06:29:34.394Z,10.50
2019-04-27T06:30:39.047Z,11.50
2019-04-27T06:31:41.736Z,10.25
2019-04-27T06:32:44.765Z,8.00
2019-04-27T06:33:49.593Z,11.00
2019-04-27T06:34:52.331Z,11.75
2019-04-27T06:35:55.526Z,12.75
2019-04-27T06:36:59.926Z,11.25
2019-04-27T06:38:02.751Z,9.00
2019-04-27T06:39:05.909Z,11.50
2019-04-27T06:40:09.845Z,9.00
2019-04-27T06:41:12.639Z,8.75
2019-04-27T06:42:18.158Z,8.25
2019-04-27T06:43:19.720Z,8.00
2019-04-27T06:44:22.359Z,9.00
2019-04-27T06:45:26.414Z,9.00
2019-04-27T06:46:29.360Z,6.00
2019-04-27T06:47:32.017Z,9.00
2019-04-27T06:48:35.149Z,11.25
2019-04-27T06:49:39.489Z,10.50
2019-04-27T06:50:42.615Z,9.00
2019-04-27T06:51:47.127Z,8.50
2019-04-27T06:52:50.062Z,9.00
2019-04-27T06:53:53.007Z,8.25
2019-04-27T06:54:56.200Z,9.00
2019-04-27T06:55:59.359Z,7.00
2019-04-27T06:57:02.071Z,9.00
2019-04-27T06:58:04.845Z,10.50
2019-04-27T06:59:09.295Z,10.50
2019-04-27T07:00:12.625Z,11.50
2019-04-27T07:01:15.437Z,12.75
2019-04-27T07:02:19.012Z,8.00
2019-04-27T07:03:24.273Z,9.50
2019-04-27T07:04:29.293Z,11.25
2019-04-27T07:05:32.203Z,9.25
2019-04-27T07:06:34.842Z,6.00
2019-04-27T07:07:39.358Z,8.25
2019-04-27T07:08:44.636Z,8.00
2019-04-27T07:09:49.330Z,8.00
2019-04-27T07:10:52.098Z,8.00
2019-04-27T07:11:55.056Z,6.00
2019-04-27T07:12:59.500Z,8.25
2019-04-27T07:14:02.171Z,7.00
2019-04-27T07:15:05.170Z,7.00
2019-04-27T07:16:09.572Z,11.00
2019-04-27T07:17:12.391Z,6.00
2019-04-27T07:18:15.442Z,9.00
2019-04-27T07:19:19.018Z,6.50
2019-04-27T07:20:21.838Z,6.00
2019-04-27T07:21:24.909Z,8.00
2019-04-27T07:22:27.592Z,12.50
2019-04-27T07:23:31.662Z,8.00
2019-04-27T07:24:34.596Z,10.25
2019-04-27T07:25:38.859Z,9.00
2019-04-27T07:26:41.663Z,9.00
2019-04-27T07:27:44.389Z,9.75
2019-04-27T07:28:47.041Z,8.25
2019-04-27T07:29:50.107Z,6.00
2019-04-27T07:30:54.994Z,6.00
2019-04-27T07:31:59.792Z,8.00
2019-04-27T07:33:02.497Z,8.00
2019-04-27T07:34:05.128Z,7.25
2019-04-27T07:35:13.032Z,8.50
2019-04-27T07:36:19.823Z,8.00
2019-04-27T07:37:22.550Z,7.50
2019-04-27T07:38:25.192Z,6.00
2019-04-27T07:39:30.174Z,8.00
2019-04-27T07:40:32.861Z,8.00
2019-04-27T07:41:35.544Z,7.00
2019-04-27T07:42:40.884Z,10.50
2019-04-27T07:43:54.887Z,7.50
2019-04-27T07:45:03.084Z,6.00
2019-04-27T07:46:05.790Z,6.50
2019-04-27T07:47:39.408Z,8.00
2019-04-27T07:48:42.526Z,8.00
2019-04-27T07:49:45.169Z,8.00
2019-04-27T07:50:48.675Z,9.00
2019-04-27T07:51:51.381Z,8.50
2019-04-27T07:52:54.027Z,8.00
2019-04-27T07:54:01.155Z,8.00
2019-04-27T07:55:05.473Z,11.25
2019-04-27T07:56:09.358Z,9.50
2019-04-27T07:57:12.579Z,7.50
2019-04-27T07:58:15.662Z,9.50
2019-04-27T07:59:18.897Z,8.00
2019-04-27T08:00:24.579Z,9.00
2019-04-27T08:01:29.258Z,9.00
2019-04-27T08:02:32.400Z,8.00
2019-04-27T08:03:35.469Z,8.00
2019-04-27T08:04:40.057Z,9.50
2019-04-27T08:05:44.677Z,8.00
2019-04-27T08:06:47.481Z,10.50
2019-04-27T08:07:50.465Z,8.50
2019-04-27T08:08:53.265Z,10.50
2019-04-27T08:09:56.082Z,10.00
2019-04-27T08:10:59.509Z,10.25
2019-04-27T08:12:02.435Z,10.50
2019-04-27T08:13:05.277Z,11.50
2019-04-27T08:14:18.597Z,10.00
2019-04-27T08:15:24.500Z,8.00
2019-04-27T08:16:29.050Z,10.00
2019-04-27T08:17:31.554Z,10.00
2019-04-27T08:18:34.419Z,12.50
2019-04-27T08:19:39.310Z,9.75
2019-04-27T08:20:42.430Z,12.50
2019-04-27T08:21:46.492Z,10.00
2019-04-27T08:22:49.767Z,10.00
2019-04-27T08:23:52.710Z,11.00
2019-04-27T08:24:55.557Z,11.00
2019-04-27T08:25:59.660Z,14.50
2019-04-27T08:27:21.496Z,12.00
2019-04-27T08:28:43.922Z,13.00
2019-04-27T08:32:06.148Z,9.00
2019-04-27T08:32:56.780Z,12.00
2019-04-27T08:34:00.079Z,11.00
2019-04-27T08:35:02.889Z,6.00
2019-04-27T08:36:05.688Z,12.75
2019-04-27T08:37:09.100Z,11.00
2019-04-27T08:38:12.151Z,12.50
2019-04-27T08:39:18.667Z,10.50
2019-04-27T08:40:21.419Z,9.50
2019-04-27T08:41:24.392Z,10.00
2019-04-27T08:42:29.253Z,9.50
2019-04-27T08:43:36.109Z,9.75
2019-04-27T08:44:39.781Z,10.50
2019-04-27T08:45:43.176Z,15.00
2019-04-27T08:46:47.012Z,11.75
2019-04-27T08:47:50.076Z,11.50
2019-04-27T08:48:53.264Z,12.00
2019-04-27T08:50:09.045Z,15.00
2019-04-27T08:51:10.643Z,11.00
2019-04-27T08:52:15.268Z,10.00
2019-04-27T08:53:18.685Z,10.50
2019-04-27T08:54:21.360Z,8.00
2019-04-27T08:55:24.195Z,10.25
2019-04-27T08:56:27.347Z,16.75
2019-04-27T08:57:31.169Z,11.75
2019-04-27T08:58:38.694Z,10.00
2019-04-27T08:59:43.487Z,12.75
2019-04-27T09:00:51.279Z,11.00
2019-04-27T09:01:54.077Z,10.50
2019-04-27T09:02:56.947Z,10.00
2019-04-27T09:04:00.100Z,11.00
2019-04-27T09:05:05.463Z,9.00
2019-04-27T09:06:13.417Z,11.00
2019-04-27T09:07:49.911Z,12.00
2019-04-27T09:09:16.794Z,11.00
2019-04-27T09:10:28.898Z,14.00
2019-04-27T09:11:53.336Z,11.50
2019-04-27T09:13:09.014Z,10.00
2019-04-27T09:14:19.345Z,13.75
2019-04-27T09:15:32.329Z,13.00
2019-04-27T09:17:00.137Z,12.00
2019-04-27T09:18:01.495Z,12.00
2019-04-27T09:19:09.170Z,12.75
2019-04-27T09:20:19.859Z,13.00
2019-04-27T09:21:25.770Z,16.00
2019-04-27T09:22:29.017Z,13.00
2019-04-27T09:23:32.267Z,16.25
2019-04-27T09:24:35.162Z,13.00
2019-04-27T09:25:39.641Z,13.50
2019-04-27T09:26:43.095Z,13.00
2019-04-27T09:27:46.258Z,10.50
2019-04-27T09:28:53.469Z,11.25
2019-04-27T09:29:56.356Z,11.25
2019-04-27T09:30:59.133Z,12.50
2019-04-27T09:32:01.982Z,13.50
2019-04-27T09:33:04.898Z,13.00
2019-04-27T09:34:08.141Z,15.00
2019-04-27T09:35:11.066Z,15.00
2019-04-27T09:36:13.892Z,14.75
2019-04-27T09:37:16.708Z,13.25
2019-04-27T09:38:19.580Z,15.75
2019-04-27T09:39:23.356Z,14.00
2019-04-27T09:40:26.832Z,15.50
2019-04-27T09:41:31.938Z,13.50
2019-04-27T09:42:38.145Z,13.50
2019-04-27T09:43:47.031Z,16.25
2019-04-27T09:44:50.450Z,13.00
2019-04-27T09:45:53.342Z,13.00
2019-04-27T09:46:56.232Z,13.50
2019-04-27T09:47:59.781Z,13.00
2019-04-27T09:49:02.606Z,16.00
2019-04-27T09:50:08.687Z,11.25
2019-04-27T09:51:12.103Z,15.00
2019-04-27T09:52:26.211Z,11.00
2019-04-27T09:53:22.908Z,13.00
2019-04-27T09:54:27.199Z,13.00
2019-04-27T09:55:33.108Z,15.00
2019-04-27T09:56:36.397Z,17.25
2019-04-27T09:57:43.470Z,17.00
2019-04-27T09:58:47.145Z,15.75
2019-04-27T10:01:21.129Z,17.00
2019-04-27T10:02:27.209Z,11.75
2019-04-27T10:03:35.908Z,14.50
2019-04-27T10:04:37.486Z,13.00
2019-04-27T10:05:40.823Z,15.00
2019-04-27T10:06:48.683Z,14.50
2019-04-27T10:07:54.055Z,15.00
2019-04-27T10:08:57.733Z,15.00
2019-04-27T10:10:00.662Z,19.00
2019-04-27T10:11:03.485Z,12.75
2019-04-27T10:12:12.346Z,16.00
2019-04-27T10:13:16.203Z,13.50
2019-04-27T10:14:19.507Z,16.75
2019-04-27T10:15:22.406Z,15.50
2019-04-27T10:16:25.702Z,15.00
2019-04-27T10:17:28.652Z,13.50
2019-04-27T10:18:31.797Z,13.00
2019-04-27T10:19:36.569Z,14.50
2019-04-27T10:20:40.994Z,19.00
2019-04-27T10:21:44.016Z,14.00
2019-04-27T10:22:46.861Z,13.00
2019-04-27T10:23:49.668Z,14.75
2019-04-27T10:24:55.004Z,17.50
2019-04-27T10:25:57.553Z,13.00
2019-04-27T10:27:00.773Z,15.75
2019-04-27T10:28:06.805Z,15.25
2019-04-27T10:29:10.191Z,12.00
2019-04-27T10:42:52.382Z,13.50
2019-04-27T10:43:58.207Z,14.50
2019-04-27T10:45:01.267Z,15.00
2019-04-27T10:46:04.172Z,16.25
2019-04-27T10:47:07.164Z,14.00
2019-04-27T10:48:10.396Z,13.50
2019-04-27T10:49:13.275Z,12.75
2019-04-27T10:50:16.203Z,14.00
2019-04-27T10:51:19.011Z,13.00
2019-04-27T10:52:21.993Z,15.00
2019-04-27T10:53:26.864Z,12.00
2019-04-27T10:54:30.317Z,19.00
2019-04-27T10:55:33.221Z,14.50
2019-04-27T10:56:39.461Z,12.50
2019-04-27T10:57:42.592Z,13.50
2019-04-27T10:59:06.113Z,13.00
2019-04-27T11:00:09.361Z,10.25
2019-04-27T11:01:15.586Z,14.75
2019-04-27T11:02:17.517Z,10.00
2019-04-27T11:03:39.067Z,10.50
2019-04-27T11:05:06.988Z,13.75
2019-04-27T11:06:27.596Z,12.00
2019-04-27T11:07:38.315Z,11.50
2019-04-27T11:10:18.146Z,15.75
2019-04-27T11:11:21.306Z,13.75
2019-04-27T11:12:26.072Z,15.25
2019-04-27T11:13:31.947Z,14.50
2019-04-27T11:14:34.822Z,11.75
2019-04-27T11:15:37.675Z,11.00
2019-04-27T11:16:46.898Z,11.00
2019-04-27T11:17:50.095Z,11.75
2019-04-27T11:18:52.902Z,10.25
2019-04-27T11:19:55.923Z,8.00
2019-04-27T11:20:58.604Z,9.00
2019-04-27T11:22:07.063Z,9.50
2019-04-27T11:23:12.418Z,8.00
2019-04-27T11:24:16.669Z,11.00
2019-04-27T11:25:19.521Z,11.50
2019-04-27T11:26:26.300Z,10.00
2019-04-27T11:27:29.180Z,7.50
2019-04-27T11:28:33.203Z,8.50
2019-04-27T11:29:36.165Z,10.00
2019-04-27T11:30:39.032Z,10.00
2019-04-27T11:31:42.193Z,10.25
2019-04-27T11:32:45.546Z,12.25
2019-04-27T11:33:48.754Z,9.75
2019-04-27T11:35:27.137Z,6.00
2019-04-27T11:36:45.569Z,7.50
2019-04-27T11:37:48.719Z,8.50
2019-04-27T11:38:53.904Z,7.50
2019-04-27T11:39:56.584Z,7.50
2019-04-27T11:40:59.696Z,6.00
2019-04-27T11:42:02.432Z,8.00
2019-04-27T11:43:05.922Z,5.50
2019-04-27T11:44:09.139Z,6.50
2019-04-27T11:45:12.110Z,8.00
2019-04-27T11:46:16.408Z,6.50
2019-04-27T11:47:19.113Z,4.75
2019-04-27T11:48:21.940Z,5.75
2019-04-27T11:49:25.798Z,7.50
2019-04-27T11:50:29.068Z,6.00
2019-04-27T11:51:31.776Z,6.00
2019-04-27T11:52:34.549Z,8.00
2019-04-27T11:53:37.207Z,6.00
2019-04-27T11:54:41.794Z,11.00
2019-04-27T11:55:44.969Z,6.00
2019-04-27T11:56:47.991Z,7.50
2019-04-27T11:57:50.689Z,6.00
2019-04-27T11:58:53.357Z,8.00
2019-04-27T11:59:56.296Z,6.00
2019-04-27T12:01:00.665Z,8.00
2019-04-27T12:02:05.140Z,3.00
2019-04-27T12:03:08.079Z,5.00
2019-04-27T12:04:12.989Z,5.00
2019-04-27T12:05:18.841Z,3.00
2019-04-27T12:06:21.504Z,3.00
2019-04-27T12:07:24.166Z,4.50
2019-04-27T12:08:27.056Z,3.00
2019-04-27T12:09:32.860Z,3.00
2019-04-27T12:10:36.309Z,5.00
2019-04-27T12:11:42.121Z,3.00
2019-04-27T12:12:47.199Z,1.50
2019-04-27T12:13:50.027Z,3.00
2019-04-27T12:14:52.782Z,3.00
2019-04-27T12:15:56.975Z,3.00
2019-04-27T12:16:59.632Z,3.00
2019-04-27T12:18:02.558Z,5.00
2019-04-27T12:19:10.969Z,5.00
2019-04-27T12:20:13.624Z,3.50
2019-04-27T12:21:16.348Z,5.00
2019-04-27T12:22:19.276Z,3.00
2019-04-27T12:23:33.088Z,5.00
2019-04-27T12:24:27.464Z,2.00
2019-04-27T12:25:30.222Z,3.00
2019-04-27T12:26:42.849Z,3.50
2019-04-27T12:28:02.087Z,4.00
2019-04-27T12:29:06.298Z,3.50
2019-04-27T12:30:16.889Z,5.00
2019-04-27T12:31:25.794Z,4.00
2019-04-27T12:32:28.718Z,3.50
2019-04-27T12:33:33.089Z,1.00
2019-04-27T12:34:40.075Z,2.50
2019-04-27T12:35:56.887Z,3.00
2019-04-27T12:36:53.496Z,5.00
2019-04-27T12:38:05.887Z,3.00
2019-04-27T12:39:08.569Z,6.50
2019-04-27T12:40:11.226Z,5.00
2019-04-27T12:41:16.719Z,5.00
2019-04-27T12:42:21.057Z,3.00
2019-04-27T12:43:23.855Z,2.50
2019-04-27T12:44:26.635Z,3.00
2019-04-27T12:45:29.287Z,5.00
2019-04-27T12:46:32.108Z,7.00
2019-04-27T12:47:36.449Z,3.00
2019-04-27T12:48:39.379Z,3.00
2019-04-27T12:49:42.033Z,3.00
2019-04-27T12:50:46.226Z,4.00
2019-04-27T12:51:48.991Z,3.00
2019-04-27T12:52:55.033Z,5.00
2019-04-27T12:54:19.153Z,5.00
2019-04-27T12:55:36.415Z,5.00
2019-04-27T12:56:56.821Z,5.00
2019-04-27T12:58:08.238Z,3.00
2019-04-27T12:59:19.000Z,5.00
2019-04-27T13:00:34.081Z,3.00
2019-04-27T13:01:39.462Z,6.50
2019-04-27T13:02:42.777Z,4.50
2019-04-27T13:03:46.350Z,4.00
2019-04-27T13:04:49.318Z,4.50
2019-04-27T13:05:53.587Z,7.00
2019-04-27T13:06:56.536Z,3.00
2019-04-27T13:07:59.307Z,5.00
2019-04-27T13:09:04.655Z,5.50
2019-04-27T13:10:10.419Z,5.00
2019-04-27T13:11:13.410Z,2.50
2019-04-27T13:12:16.746Z,1.50
2019-04-27T13:13:20.777Z,5.00
2019-04-27T13:14:23.686Z,2.00
2019-04-27T13:15:28.286Z,1.50
2019-04-27T13:16:31.057Z,4.00
2019-04-27T13:17:39.988Z,3.00
2019-04-27T13:18:43.639Z,5.00
2019-04-27T13:19:46.344Z,3.00
2019-04-27T13:20:49.006Z,5.00
2019-04-27T13:21:52.050Z,3.00
2019-04-27T13:22:55.836Z,3.00
2019-04-27T13:24:04.606Z,6.00
2019-04-27T13:25:09.308Z,3.00
2019-04-27T13:26:12.463Z,5.00
2019-04-27T13:27:16.646Z,1.00
2019-04-27T13:28:19.605Z,21.00
2019-04-27T13:29:22.473Z,16.50
2019-04-27T13:30:25.830Z,3.00
2019-04-27T13:31:28.504Z,4.50
2019-04-27T13:32:36.333Z,5.50
2019-04-27T13:33:38.888Z,7.00
2019-04-27T13:34:41.637Z,8.75
2019-04-27T13:35:45.833Z,5.00
2019-04-27T13:36:53.699Z,5.00
2019-04-27T13:37:56.591Z,3.00
2019-04-27T13:39:02.080Z,3.50
2019-04-27T13:40:09.364Z,5.00
2019-04-27T13:41:09.958Z,7.00
2019-04-27T13:42:12.679Z,5.00
2019-04-27T13:43:25.925Z,7.25
2019-04-27T13:44:29.845Z,5.00
2019-04-27T13:46:03.552Z,5.00
2019-04-27T13:47:23.267Z,5.50
2019-04-27T13:49:00.181Z,5.00
2019-04-27T13:50:23.992Z,4.50
2019-04-27T13:51:57.688Z,7.00
2019-04-27T13:53:01.325Z,6.00
2019-04-27T13:54:14.924Z,5.00
2019-04-27T13:55:10.793Z,6.00
2019-04-27T13:56:17.394Z,7.50
2019-04-27T13:57:20.293Z,7.00
2019-04-27T13:58:22.930Z,7.00
2019-04-27T13:59:25.617Z,5.00
2019-04-27T14:00:28.805Z,8.50
2019-04-27T14:01:33.660Z,5.25
2019-04-27T14:02:36.717Z,7.25
2019-04-27T14:03:39.364Z,6.25
2019-04-27T14:04:42.073Z,9.00
2019-04-27T14:05:45.097Z,5.25
2019-04-27T14:06:49.225Z,7.25
2019-04-27T14:07:52.167Z,5.00
2019-04-27T14:08:54.834Z,6.25
2019-04-27T14:09:57.563Z,6.75
2019-04-27T14:11:01.257Z,8.00
2019-04-27T14:12:18.765Z,5.00
2019-04-27T14:13:26.203Z,7.50
2019-04-27T14:14:30.663Z,7.75
2019-04-27T14:15:33.316Z,6.00
2019-04-27T14:16:35.978Z,6.00
2019-04-27T14:17:39.243Z,5.50
2019-04-27T14:18:43.906Z,6.00
2019-04-27T14:19:48.194Z,5.25
2019-04-27T14:20:52.333Z,10.25
2019-04-27T14:21:55.034Z,8.00
2019-04-27T14:23:12.632Z,6.00
2019-04-27T14:24:27.505Z,7.25
2019-04-27T14:25:20.094Z,5.25
2019-04-27T14:26:25.390Z,8.00
2019-04-27T14:27:31.486Z,6.00
2019-04-27T14:28:34.232Z,8.00
2019-04-27T14:29:39.182Z,7.00
2019-04-27T14:30:41.346Z,8.00
2019-04-27T14:31:44.236Z,6.00
2019-04-27T14:32:50.313Z,6.00
2019-04-27T14:33:53.126Z,8.25
2019-04-27T14:35:03.560Z,7.00
2019-04-27T14:36:08.192Z,7.00
2019-04-27T14:37:11.270Z,4.00
2019-04-27T14:38:14.551Z,4.50
2019-04-27T14:39:18.578Z,7.00
2019-04-27T14:40:21.453Z,6.00
2019-04-27T14:41:29.735Z,5.00
2019-04-27T14:42:33.357Z,4.00
2019-04-27T14:43:36.353Z,7.00
2019-04-27T14:44:43.696Z,6.75
2019-04-27T14:45:48.477Z,6.00
2019-04-27T14:46:52.130Z,5.00
2019-04-27T14:47:58.223Z,4.00
2019-04-27T14:49:03.601Z,6.00
2019-04-27T14:50:08.739Z,3.25
2019-04-27T14:51:11.930Z,6.75
2019-04-27T14:52:18.789Z,7.00
2019-04-27T14:53:21.734Z,4.00
2019-04-27T14:54:30.165Z,4.00
2019-04-27T14:55:34.894Z,4.00